Time;durP1;ratioP1;P1;durP2;ratioP2;P2;SDS_P1;SDS_P2;PMS_P1;PMS_P2;Temp;Humidity;BMP_temperature;BMP_pressure;BME280_temperature;BME280_humidity;BME280_pressure;Samples;Min_cycle;Max_cycle;Signal;HPM_P1;HPM_P2
2022/05/01 00:00:22;;;;;;;;;;;16.30;89.60;;;;;;5054281;28;19909;-72
2022/05/01 00:02:48;;;;;;;;;;;16.10;90.40;;;;;;5054178;28;19955;-70
2022/05/01 00:05:13;;;;;;;;;;;16.00;90.90;;;;;;5054028;28;19992;-72
2022/05/01 00:07:39;;;;;;;;;;;15.90;90.90;;;;;;5054401;28;19919;-73
2022/05/01 00:10:06;;;;;;;;;;;15.80;91.10;;;;;;5054089;28;19916;-71
2022/05/01 00:12:32;;;;;;;;;;;15.70;92.00;;;;;;5053273;28;19917;-73
2022/05/01 00:14:58;;;;;;;;;;;15.60;92.40;;;;;;5054595;28;19916;-74
2022/05/01 00:17:24;;;;;;;;;;;15.50;92.50;;;;;;5054043;28;19916;-72
2022/05/01 00:19:54;;;;;;;;;;;15.50;92.70;;;;;;5054008;28;20257;-72
2022/05/01 00:22:20;;;;;;;;;;;15.50;92.20;;;;;;5053736;28;19909;-71
2022/05/01 00:24:46;;;;;;;;;;;15.60;92.40;;;;;;5054024;28;19925;-72
2022/05/01 00:27:12;;;;;;;;;;;15.70;92.70;;;;;;5054480;28;20011;-72
2022/05/01 00:29:38;;;;;;;;;;;15.70;92.50;;;;;;5053968;28;19909;-73
2022/05/01 00:32:05;;;;;;;;;;;15.80;92.70;;;;;;5053588;28;19913;-73
2022/05/01 00:37:15;;;;;;;;;;;15.80;92.50;;;;;;5053750;28;19985;-73
2022/05/01 00:39:41;;;;;;;;;;;15.80;92.70;;;;;;5053635;28;19908;-72
2022/05/01 00:42:07;;;;;;;;;;;15.80;92.10;;;;;;5053793;28;19924;-72
2022/05/01 00:44:34;;;;;;;;;;;15.90;91.80;;;;;;5053693;28;20043;-73
2022/05/01 00:46:59;;;;;;;;;;;16.00;91.80;;;;;;5053852;28;19909;-73
2022/05/01 00:49:26;;;;;;;;;;;16.00;92.10;;;;;;5052090;28;19999;-71
2022/05/01 00:51:55;;;;;;;;;;;16.00;91.80;;;;;;5051918;28;19939;-72
2022/05/01 00:54:22;;;;;;;;;;;16.10;90.80;;;;;;5053505;28;19916;-72
2022/05/01 00:56:49;;;;;;;;;;;16.10;91.30;;;;;;5053428;28;19915;-72
2022/05/01 00:59:15;;;;;;;;;;;16.00;90.80;;;;;;5053272;28;19909;-72
2022/05/01 01:01:42;;;;;;;;;;;16.00;91.40;;;;;;5053466;28;20290;-72
2022/05/01 01:04:09;;;;;;;;;;;16.00;91.90;;;;;;5053347;28;19913;-72
2022/05/01 01:06:35;;;;;;;;;;;15.90;92.20;;;;;;5052515;28;19948;-73
2022/05/01 01:09:01;;;;;;;;;;;15.80;92.20;;;;;;5053263;28;20008;-72
2022/05/01 01:11:27;;;;;;;;;;;15.80;92.70;;;;;;5053166;28;19937;-72
2022/05/01 01:13:54;;;;;;;;;;;15.80;92.70;;;;;;5053622;28;20285;-71
2022/05/01 01:16:21;;;;;;;;;;;15.70;93.40;;;;;;5051857;28;19913;-71
2022/05/01 01:18:47;;;;;;;;;;;15.60;93.40;;;;;;5053513;28;19908;-72
2022/05/01 01:21:12;;;;;;;;;;;15.50;94.10;;;;;;5053033;28;20253;-71
2022/05/01 01:23:41;;;;;;;;;;;15.40;94.40;;;;;;5052949;28;20479;-71
2022/05/01 01:26:08;;;;;;;;;;;15.30;94.70;;;;;;5052798;28;19920;-71
2022/05/01 01:28:35;;;;;;;;;;;15.30;94.30;;;;;;5051642;28;19908;-72
2022/05/01 01:33:48;;;;;;;;;;;15.20;94.70;;;;;;5053151;28;19915;-71
2022/05/01 01:36:14;;;;;;;;;;;15.20;94.90;;;;;;5051616;28;19982;-70
2022/05/01 01:38:40;;;;;;;;;;;15.20;95.00;;;;;;5052886;28;19995;-72
2022/05/01 01:44:09;;;;;;;;;;;15.20;94.90;;;;;;5052316;28;19915;-72
2022/05/01 01:46:37;;;;;;;;;;;15.30;94.30;;;;;;5052296;28;19938;-71
2022/05/01 01:49:07;;;;;;;;;;;15.30;93.50;;;;;;5052331;28;19913;-72
2022/05/01 01:51:33;;;;;;;;;;;15.40;93.20;;;;;;5051901;28;20011;-72
2022/05/01 01:53:59;;;;;;;;;;;15.40;93.00;;;;;;5052437;28;19955;-70
2022/05/01 01:56:25;;;;;;;;;;;15.50;93.20;;;;;;5052052;28;20004;-72
2022/05/01 01:58:50;;;;;;;;;;;15.60;93.00;;;;;;5052479;28;19909;-72
2022/05/01 02:01:16;;;;;;;;;;;15.60;93.00;;;;;;5051865;28;20012;-72
2022/05/01 02:03:42;;;;;;;;;;;15.60;92.80;;;;;;5051912;28;19909;-72
2022/05/01 02:06:09;;;;;;;;;;;15.50;92.90;;;;;;5051944;28;20058;-71
2022/05/01 02:08:35;;;;;;;;;;;15.40;93.10;;;;;;5052179;28;20199;-72
2022/05/01 02:11:04;;;;;;;;;;;15.50;93.10;;;;;;5051827;28;19928;-72
2022/05/01 02:13:30;;;;;;;;;;;15.50;93.40;;;;;;5052193;28;19921;-72
2022/05/01 02:15:56;;;;;;;;;;;15.40;93.50;;;;;;5051880;28;19909;-71
2022/05/01 02:18:22;;;;;;;;;;;15.40;93.10;;;;;;5052219;28;20463;-72
2022/05/01 02:23:33;;;;;;;;;;;15.50;92.90;;;;;;5052170;28;20015;-71
2022/05/01 02:25:59;;;;;;;;;;;15.60;92.60;;;;;;5051559;28;19954;-71
2022/05/01 02:28:26;;;;;;;;;;;15.70;91.90;;;;;;5051576;28;19909;-72
2022/05/01 02:30:52;;;;;;;;;;;15.70;91.80;;;;;;5052089;28;19955;-71
2022/05/01 02:33:32;;;;;;;;;;;15.70;92.00;;;;;;5050742;28;20276;-72
2022/05/01 02:35:59;;;;;;;;;;;15.60;92.40;;;;;;5051110;28;19909;-71
2022/05/01 02:38:25;;;;;;;;;;;15.60;92.60;;;;;;5051745;28;19917;-72
2022/05/01 02:40:51;;;;;;;;;;;15.50;92.90;;;;;;5051867;28;20280;-72
2022/05/01 02:43:17;;;;;;;;;;;15.50;92.70;;;;;;5049989;28;19915;-72
2022/05/01 02:45:43;;;;;;;;;;;15.50;92.50;;;;;;5051470;28;20007;-71
2022/05/01 02:48:09;;;;;;;;;;;15.40;93.00;;;;;;5052274;28;20295;-71
2022/05/01 02:50:34;;;;;;;;;;;15.40;93.20;;;;;;5055684;28;19913;-72
2022/05/01 02:53:04;;;;;;;;;;;15.40;93.20;;;;;;5055438;28;20015;-71
2022/05/01 02:55:30;;;;;;;;;;;15.30;93.50;;;;;;5053775;28;19908;-72
2022/05/01 02:57:55;;;;;;;;;;;15.30;93.70;;;;;;5055344;28;19915;-71
2022/05/01 03:00:22;;;;;;;;;;;15.20;94.00;;;;;;5053752;28;20003;-73
2022/05/01 03:02:48;;;;;;;;;;;15.20;94.20;;;;;;5055636;28;20414;-70
2022/05/01 03:05:14;;;;;;;;;;;15.20;94.30;;;;;;5053724;28;20396;-72
2022/05/01 03:07:40;;;;;;;;;;;15.20;94.50;;;;;;5055431;28;19909;-72
2022/05/01 03:16:12;;;;;;;;;;;15.30;95.20;;;;;;5055174;28;20011;-72
2022/05/01 03:24:21;;;;;;;;;;;15.20;96.20;;;;;;5054939;28;20428;-71
2022/05/01 03:26:47;;;;;;;;;;;15.20;96.50;;;;;;5054717;28;19952;-72
2022/05/01 03:29:14;;;;;;;;;;;15.20;96.70;;;;;;5054906;28;19963;-73
2022/05/01 03:31:40;;;;;;;;;;;15.20;96.90;;;;;;5054684;28;19920;-72
2022/05/01 03:34:06;;;;;;;;;;;15.20;97.00;;;;;;5054885;28;19918;-73
2022/05/01 03:36:35;;;;;;;;;;;15.10;97.30;;;;;;5054265;28;19917;-72
2022/05/01 03:39:01;;;;;;;;;;;15.10;97.60;;;;;;5053770;28;20264;-72
2022/05/01 03:41:51;;;;;;;;;;;15.10;98.00;;;;;;5053404;28;19909;-72
2022/05/01 03:44:17;;;;;;;;;;;15.20;97.90;;;;;;5053725;28;19962;-72
2022/05/01 03:46:43;;;;;;;;;;;15.20;97.60;;;;;;5052992;28;19913;-72
2022/05/01 03:49:21;;;;;;;;;;;15.20;97.10;;;;;;5051877;28;19920;-72
2022/05/01 03:51:54;;;;;;;;;;;15.20;97.00;;;;;;5051747;28;19971;-71
2022/05/01 03:54:20;;;;;;;;;;;15.30;96.80;;;;;;5053336;28;19920;-71
2022/05/01 03:56:46;;;;;;;;;;;15.40;96.90;;;;;;5053285;28;19908;-71
2022/05/01 03:59:11;;;;;;;;;;;15.50;96.70;;;;;;5052736;28;20340;-71
2022/05/01 04:01:37;;;;;;;;;;;15.60;96.50;;;;;;5051725;28;20386;-72
2022/05/01 04:04:03;;;;;;;;;;;15.60;96.60;;;;;;5051739;28;20299;-72
2022/05/01 04:06:30;;;;;;;;;;;15.70;96.80;;;;;;5053717;28;19921;-73
2022/05/01 04:08:56;;;;;;;;;;;15.80;96.80;;;;;;5053146;28;20271;-73
2022/05/01 04:11:21;;;;;;;;;;;15.80;97.40;;;;;;5053165;28;20008;-72
2022/05/01 04:13:50;;;;;;;;;;;15.80;97.80;;;;;;5053238;28;19913;-73
2022/05/01 04:16:22;;;;;;;;;;;15.90;98.00;;;;;;5053538;28;20408;-72
2022/05/01 04:18:51;;;;;;;;;;;15.90;97.50;;;;;;5052638;28;19955;-72
2022/05/01 04:21:16;;;;;;;;;;;15.90;98.20;;;;;;5053326;28;19916;-72
2022/05/01 04:23:42;;;;;;;;;;;15.90;98.40;;;;;;5053232;28;19913;-72
2022/05/01 04:26:08;;;;;;;;;;;15.90;98.50;;;;;;5053587;28;20310;-71
2022/05/01 04:28:37;;;;;;;;;;;15.80;99.20;;;;;;5053400;28;20364;-73
2022/05/01 04:31:03;;;;;;;;;;;15.80;99.00;;;;;;5051824;28;19925;-72
2022/05/01 04:33:28;;;;;;;;;;;15.60;99.40;;;;;;5052883;28;19932;-71
2022/05/01 04:35:54;;;;;;;;;;;15.60;99.60;;;;;;4967594;28;2392477;-72
2022/05/01 04:38:24;;;;;;;;;;;15.50;99.40;;;;;;5053816;28;19983;-72
2022/05/01 04:40:53;;;;;;;;;;;15.50;99.30;;;;;;5053687;28;19909;-72
2022/05/01 04:43:23;;;;;;;;;;;15.50;99.50;;;;;;5053492;28;19909;-71
2022/05/01 04:45:50;;;;;;;;;;;15.40;99.90;;;;;;5053634;28;19986;-72
2022/05/01 04:48:17;;;;;;;;;;;15.40;99.90;;;;;;5053433;28;19939;-71
2022/05/01 04:50:43;;;;;;;;;;;15.40;99.60;;;;;;5053101;28;20311;-72
2022/05/01 04:53:10;;;;;;;;;;;15.40;99.90;;;;;;5053756;28;19908;-71
2022/05/01 04:55:54;;;;;;;;;;;15.40;99.90;;;;;;5053968;28;20352;-73
2022/05/01 04:58:29;;;;;;;;;;;15.30;99.90;;;;;;5053467;28;19951;-71
2022/05/01 05:00:55;;;;;;;;;;;15.40;99.90;;;;;;5053262;28;19908;-73
2022/05/01 05:03:21;;;;;;;;;;;15.20;99.90;;;;;;5051987;28;19909;-71
2022/05/01 05:05:46;;;;;;;;;;;15.10;99.90;;;;;;5052190;28;19962;-67
2022/05/01 05:10:56;;;;;;;;;;;14.90;99.90;;;;;;5050927;28;20452;-71
2022/05/01 05:13:24;;;;;;;;;;;14.90;99.90;;;;;;5052642;28;20020;-71
2022/05/01 05:15:50;;;;;;;;;;;14.90;99.90;;;;;;5052186;28;19963;-72
2022/05/01 05:18:16;;;;;;;;;;;14.80;99.90;;;;;;5031611;28;19963;-71
2022/05/01 05:20:42;;;;;;;;;;;14.80;99.90;;;;;;5031578;28;19913;-71
2022/05/01 05:23:08;;;;;;;;;;;14.80;99.90;;;;;;5032715;28;20005;-70
2022/05/01 05:25:34;;;;;;;;;;;14.80;99.90;;;;;;5032746;28;19909;-70
2022/05/01 05:28:00;;;;;;;;;;;14.90;99.90;;;;;;5032929;28;19932;-71
2022/05/01 05:30:51;;;;;;;;;;;14.90;99.90;;;;;;5032376;28;19917;-71
2022/05/01 05:33:17;;;;;;;;;;;14.90;99.90;;;;;;5040443;28;20273;-70
2022/05/01 05:35:43;;;;;;;;;;;14.90;99.90;;;;;;5047841;28;19913;-69
2022/05/01 05:38:09;;;;;;;;;;;14.90;99.90;;;;;;5047523;28;20084;-68
2022/05/01 05:40:36;;;;;;;;;;;14.90;99.90;;;;;;5034408;28;20413;-72
2022/05/01 05:43:02;;;;;;;;;;;14.90;99.90;;;;;;5045849;28;19913;-72
2022/05/01 05:45:28;;;;;;;;;;;14.90;99.90;;;;;;5047859;28;20419;-71
2022/05/01 05:47:53;;;;;;;;;;;15.00;99.90;;;;;;5050867;28;20210;-71
2022/05/01 05:50:19;;;;;;;;;;;15.00;99.90;;;;;;5050894;28;19917;-71
2022/05/01 05:52:45;;;;;;;;;;;15.10;99.90;;;;;;5051559;28;19908;-70
2022/05/01 05:55:11;;;;;;;;;;;15.20;99.90;;;;;;5051828;28;19909;-71
2022/05/01 05:57:37;;;;;;;;;;;15.20;99.90;;;;;;5051564;28;19992;-71
2022/05/01 06:00:03;;;;;;;;;;;15.20;99.90;;;;;;5050094;28;20083;-70
2022/05/01 06:02:29;;;;;;;;;;;15.20;99.90;;;;;;5051166;28;19968;-71
2022/05/01 06:04:55;;;;;;;;;;;15.30;99.90;;;;;;5050150;28;19909;-71
2022/05/01 06:07:20;;;;;;;;;;;15.40;99.90;;;;;;5050179;28;20419;-71
2022/05/01 06:09:46;;;;;;;;;;;15.50;99.90;;;;;;5050145;28;19928;-70
2022/05/01 06:12:12;;;;;;;;;;;15.50;99.90;;;;;;5049441;28;20372;-71
2022/05/01 06:14:39;;;;;;;;;;;15.50;99.90;;;;;;5051424;28;19990;-71
2022/05/01 06:17:05;;;;;;;;;;;15.50;99.90;;;;;;5051391;28;19962;-70
2022/05/01 06:19:31;;;;;;;;;;;15.60;99.60;;;;;;5052408;28;20310;-71
2022/05/01 06:21:57;;;;;;;;;;;15.70;99.00;;;;;;5051732;28;19957;-71
2022/05/01 06:24:23;;;;;;;;;;;15.80;98.90;;;;;;5051948;28;20257;-71
2022/05/01 06:27:19;;;;;;;;;;;15.80;98.80;;;;;;5052134;28;19913;-72
2022/05/01 06:29:45;;;;;;;;;;;15.90;98.90;;;;;;5052245;28;19912;-72
2022/05/01 06:32:11;;;;;;;;;;;15.90;99.30;;;;;;5052066;28;19925;-71
2022/05/01 06:34:37;;;;;;;;;;;15.80;99.40;;;;;;5051995;28;20383;-71
2022/05/01 06:37:04;;;;;;;;;;;15.90;99.80;;;;;;5051373;28;20019;-71
2022/05/01 06:39:52;;;;;;;;;;;15.90;99.50;;;;;;5052288;28;19909;-71
2022/05/01 06:42:18;;;;;;;;;;;15.90;99.70;;;;;;5051846;28;20379;-70
2022/05/01 06:44:44;;;;;;;;;;;15.90;99.90;;;;;;5051921;28;19924;-71
2022/05/01 06:47:12;;;;;;;;;;;15.90;99.90;;;;;;5050723;28;19953;-71
2022/05/01 06:49:38;;;;;;;;;;;15.90;99.90;;;;;;5049896;28;20384;-70
2022/05/01 06:52:04;;;;;;;;;;;15.90;99.30;;;;;;5051275;28;19917;-71
2022/05/01 06:54:30;;;;;;;;;;;15.90;99.50;;;;;;5050350;28;19909;-67
2022/05/01 06:56:56;;;;;;;;;;;15.90;99.30;;;;;;5051645;28;20068;-70
2022/05/01 06:59:22;;;;;;;;;;;15.90;99.30;;;;;;5051456;28;19912;-70
2022/05/01 07:01:47;;;;;;;;;;;15.80;99.60;;;;;;5051745;28;19913;-71
2022/05/01 07:04:13;;;;;;;;;;;15.80;99.80;;;;;;5051527;28;19959;-70
2022/05/01 07:06:40;;;;;;;;;;;15.90;99.90;;;;;;5049970;28;19920;-70
2022/05/01 07:09:06;;;;;;;;;;;15.90;99.90;;;;;;5051270;28;20266;-70
2022/05/01 07:11:33;;;;;;;;;;;16.10;99.90;;;;;;5051548;28;19917;-69
2022/05/01 07:13:59;;;;;;;;;;;16.00;99.90;;;;;;5050116;28;20361;-71
2022/05/01 07:16:25;;;;;;;;;;;16.00;99.90;;;;;;5051469;28;19959;-79
2022/05/01 07:18:51;;;;;;;;;;;16.00;99.90;;;;;;5051573;28;19948;-76
2022/05/01 07:21:17;;;;;;;;;;;15.90;99.90;;;;;;5051921;28;19966;-74
2022/05/01 07:23:43;;;;;;;;;;;15.90;99.90;;;;;;5051638;28;19955;-76
2022/05/01 07:26:09;;;;;;;;;;;15.90;99.90;;;;;;5049993;28;19956;-75
2022/05/01 07:28:35;;;;;;;;;;;16.00;99.90;;;;;;5051433;28;19912;-75
2022/05/01 07:31:02;;;;;;;;;;;16.10;99.90;;;;;;5051753;28;20408;-75
2022/05/01 07:33:28;;;;;;;;;;;16.10;99.90;;;;;;5051257;28;19909;-75
2022/05/01 07:35:54;;;;;;;;;;;16.30;99.90;;;;;;5054757;28;19964;-75
2022/05/01 07:38:20;;;;;;;;;;;16.40;99.90;;;;;;5054987;28;19917;-74
2022/05/01 07:40:46;;;;;;;;;;;16.50;99.90;;;;;;5054946;28;19909;-75
2022/05/01 07:43:12;;;;;;;;;;;16.60;99.90;;;;;;5054917;28;19909;-74
2022/05/01 07:45:38;;;;;;;;;;;16.70;99.90;;;;;;5055159;28;20051;-76
2022/05/01 07:48:03;;;;;;;;;;;16.80;99.90;;;;;;5054417;28;19920;-74
2022/05/01 07:50:29;;;;;;;;;;;16.90;99.90;;;;;;5054644;28;19917;-76
2022/05/01 07:52:56;;;;;;;;;;;17.00;99.90;;;;;;5054043;28;20399;-75
2022/05/01 07:55:22;;;;;;;;;;;17.10;99.90;;;;;;5054282;28;20012;-76
2022/05/01 07:57:48;;;;;;;;;;;17.20;99.40;;;;;;5054056;28;20007;-75
2022/05/01 08:00:14;;;;;;;;;;;17.10;98.60;;;;;;5053812;28;20019;-75
2022/05/01 08:05:24;;;;;;;;;;;17.50;98.90;;;;;;5054121;28;20332;-76
2022/05/01 08:07:51;;;;;;;;;;;17.70;98.30;;;;;;5053743;28;20008;-76
2022/05/01 08:10:17;;;;;;;;;;;17.90;98.00;;;;;;5053897;28;20390;-74
2022/05/01 08:12:52;;;;;;;;;;;18.20;98.30;;;;;;5053601;28;20295;-75
2022/05/01 08:15:18;;;;;;;;;;;18.40;98.30;;;;;;5053951;28;20383;-76
2022/05/01 08:17:47;;;;;;;;;;;18.50;97.20;;;;;;5054301;28;19916;-74
2022/05/01 08:23:04;;;;;;;;;;;18.20;96.40;;;;;;5055157;28;19915;-75
2022/05/01 08:25:30;;;;;;;;;;;18.20;96.30;;;;;;5054410;28;20200;-74
2022/05/01 08:27:55;;;;;;;;;;;18.40;96.40;;;;;;5054460;28;19919;-74
2022/05/01 08:30:21;;;;;;;;;;;18.40;96.10;;;;;;5054071;28;20008;-75
2022/05/01 08:32:47;;;;;;;;;;;18.40;95.80;;;;;;5054295;28;19909;-74
2022/05/01 08:35:13;;;;;;;;;;;18.40;95.60;;;;;;5054552;28;19952;-74
2022/05/01 08:37:40;;;;;;;;;;;18.50;95.80;;;;;;5053958;28;20345;-75
2022/05/01 08:40:07;;;;;;;;;;;18.60;95.20;;;;;;5054207;28;19955;-75
2022/05/01 08:42:38;;;;;;;;;;;18.60;95.50;;;;;;5054001;28;19931;-76
2022/05/01 08:45:07;;;;;;;;;;;18.70;95.60;;;;;;5053824;28;20369;-75
2022/05/01 08:47:50;;;;;;;;;;;19.00;94.80;;;;;;5053237;28;20400;-75
2022/05/01 08:50:23;;;;;;;;;;;19.20;94.50;;;;;;5052868;28;19920;-74
2022/05/01 08:52:50;;;;;;;;;;;19.50;94.20;;;;;;5053478;28;19978;-72
2022/05/01 08:55:16;;;;;;;;;;;19.70;94.10;;;;;;5053466;28;19970;-74
2022/05/01 08:57:41;;;;;;;;;;;19.60;94.70;;;;;;5053612;28;20363;-74
2022/05/01 09:00:08;;;;;;;;;;;19.20;95.40;;;;;;5052638;28;19909;-71
2022/05/01 09:02:34;;;;;;;;;;;19.00;95.60;;;;;;5053285;28;20281;-74
2022/05/01 09:05:00;;;;;;;;;;;18.90;96.10;;;;;;5052989;28;19943;-74
2022/05/01 09:07:26;;;;;;;;;;;18.90;96.30;;;;;;5053122;28;20246;-74
2022/05/01 09:10:01;;;;;;;;;;;19.00;96.10;;;;;;5053663;28;19909;-75
2022/05/01 09:15:11;;;;;;;;;;;19.30;96.30;;;;;;5053333;28;20447;-75
2022/05/01 09:17:37;;;;;;;;;;;19.40;96.20;;;;;;5053515;28;19955;-74
2022/05/01 09:20:07;;;;;;;;;;;19.60;96.40;;;;;;5052937;28;19917;-75
2022/05/01 09:22:52;;;;;;;;;;;19.70;96.10;;;;;;5052979;28;19915;-74
2022/05/01 09:25:19;;;;;;;;;;;19.80;95.00;;;;;;5053374;28;19929;-73
2022/05/01 09:27:45;;;;;;;;;;;19.80;94.50;;;;;;5053147;28;19909;-71
2022/05/01 09:30:29;;;;;;;;;;;20.00;94.20;;;;;;5052872;28;19915;-73
2022/05/01 09:32:57;;;;;;;;;;;19.80;92.40;;;;;;5052343;28;19909;-75
2022/05/01 09:35:22;;;;;;;;;;;19.70;92.50;;;;;;5052346;28;19963;-75
2022/05/01 09:37:50;;;;;;;;;;;19.90;92.90;;;;;;5051926;28;19924;-75
2022/05/01 09:40:29;;;;;;;;;;;19.90;92.70;;;;;;5052013;28;20328;-75
2022/05/01 09:42:55;;;;;;;;;;;20.00;92.70;;;;;;5052192;28;19909;-74
2022/05/01 09:45:28;;;;;;;;;;;20.10;91.70;;;;;;5052289;28;20241;-74
2022/05/01 09:47:54;;;;;;;;;;;20.20;91.50;;;;;;5052439;28;19984;-74
2022/05/01 09:50:37;;;;;;;;;;;20.00;91.30;;;;;;5051921;28;19921;-72
2022/05/01 09:53:03;;;;;;;;;;;20.10;90.90;;;;;;5052483;28;19920;-75
2022/05/01 09:55:30;;;;;;;;;;;19.90;90.80;;;;;;5051974;28;19913;-74
2022/05/01 09:58:04;;;;;;;;;;;20.00;90.80;;;;;;5051795;28;20352;-74
2022/05/01 10:00:35;;;;;;;;;;;20.00;91.00;;;;;;5051892;28;19974;-75
2022/05/01 10:03:22;;;;;;;;;;;19.90;90.70;;;;;;5051932;28;19921;-74
2022/05/01 10:05:48;;;;;;;;;;;19.90;91.20;;;;;;5044618;28;19967;-75
2022/05/01 10:08:15;;;;;;;;;;;20.10;90.70;;;;;;5051906;28;20003;-76
2022/05/01 10:10:41;;;;;;;;;;;19.90;91.10;;;;;;5051485;28;19917;-76
2022/05/01 10:13:08;;;;;;;;;;;19.70;91.30;;;;;;5050972;28;19996;-76
2022/05/01 10:15:34;;;;;;;;;;;19.70;91.50;;;;;;5051838;28;19909;-75
2022/05/01 10:18:01;;;;;;;;;;;19.80;91.40;;;;;;5049838;28;20427;-75
2022/05/01 10:20:28;;;;;;;;;;;19.90;91.70;;;;;;5050133;28;20058;-75
2022/05/01 10:22:55;;;;;;;;;;;19.70;91.80;;;;;;5051678;28;20066;-76
2022/05/01 10:25:21;;;;;;;;;;;19.70;91.90;;;;;;5050187;28;19936;-75
2022/05/01 10:27:53;;;;;;;;;;;19.70;92.40;;;;;;5050131;28;19927;-76
2022/05/01 10:33:15;;;;;;;;;;;19.90;92.30;;;;;;4997718;28;19910;-75
2022/05/01 10:35:53;;;;;;;;;;;19.70;94.40;;;;;;5051854;28;19944;-76
2022/05/01 10:38:25;;;;;;;;;;;19.80;95.00;;;;;;5051675;28;20322;-75
2022/05/01 10:40:52;;;;;;;;;;;19.90;95.80;;;;;;5051765;28;19915;-76
2022/05/01 10:43:25;;;;;;;;;;;19.90;97.00;;;;;;5051502;28;19909;-74
2022/05/01 10:45:53;;;;;;;;;;;19.90;97.90;;;;;;5051735;28;20008;-75
2022/05/01 10:48:29;;;;;;;;;;;20.00;98.70;;;;;;5051402;28;20059;-74
2022/05/01 10:50:54;;;;;;;;;;;19.90;99.00;;;;;;5051362;28;20391;-74
2022/05/01 10:53:20;;;;;;;;;;;20.00;98.20;;;;;;5051429;28;19913;-73
2022/05/01 10:55:49;;;;;;;;;;;20.10;98.80;;;;;;5051231;28;19909;-75
2022/05/01 10:58:19;;;;;;;;;;;20.20;98.20;;;;;;5051596;28;20262;-75
2022/05/01 11:00:51;;;;;;;;;;;20.30;97.50;;;;;;5051151;28;19947;-75
2022/05/01 11:03:27;;;;;;;;;;;20.50;98.30;;;;;;5051636;28;20010;-76
2022/05/01 11:06:01;;;;;;;;;;;20.30;98.10;;;;;;5051197;28;20003;-75
2022/05/01 11:08:29;;;;;;;;;;;20.70;98.10;;;;;;5051472;28;20400;-75
2022/05/01 11:11:00;;;;;;;;;;;20.80;97.70;;;;;;5054440;28;19970;-76
2022/05/01 11:13:31;;;;;;;;;;;21.00;96.90;;;;;;5055470;28;20341;-74
2022/05/01 11:15:57;;;;;;;;;;;21.20;97.50;;;;;;5054958;28;20373;-75
2022/05/01 11:18:34;;;;;;;;;;;21.50;97.60;;;;;;5055313;28;19909;-74
2022/05/01 11:21:19;;;;;;;;;;;21.60;98.10;;;;;;5053328;28;19909;-74
2022/05/01 11:23:45;;;;;;;;;;;21.80;97.50;;;;;;5055176;28;19996;-76
2022/05/01 11:26:13;;;;;;;;;;;22.00;97.10;;;;;;5054793;28;20283;-75
2022/05/01 11:28:49;;;;;;;;;;;22.20;97.00;;;;;;5054905;28;19909;-75
2022/05/01 11:31:33;;;;;;;;;;;22.20;96.20;;;;;;5054844;28;20004;-75
2022/05/01 11:34:20;;;;;;;;;;;21.90;95.80;;;;;;5055109;28;19961;-75
2022/05/01 11:36:53;;;;;;;;;;;22.00;96.90;;;;;;5054162;28;19971;-76
2022/05/01 11:39:39;;;;;;;;;;;22.30;96.50;;;;;;5054350;28;19913;-75
2022/05/01 11:42:29;;;;;;;;;;;22.40;96.30;;;;;;5053982;28;19909;-75
2022/05/01 11:44:59;;;;;;;;;;;22.70;96.20;;;;;;5054114;28;19915;-76
2022/05/01 11:47:26;;;;;;;;;;;22.60;96.00;;;;;;5054258;28;19915;-75
2022/05/01 11:49:52;;;;;;;;;;;22.40;96.40;;;;;;5052630;28;19908;-76
2022/05/01 11:52:18;;;;;;;;;;;22.30;96.50;;;;;;5053982;28;19916;-76
2022/05/01 11:54:49;;;;;;;;;;;22.40;96.40;;;;;;5052763;28;19909;-75
2022/05/01 12:02:59;;;;;;;;;;;22.80;96.20;;;;;;5054401;28;20418;-75
2022/05/01 12:05:25;;;;;;;;;;;23.00;95.30;;;;;;5053987;28;19928;-76
2022/05/01 12:07:55;;;;;;;;;;;22.80;94.90;;;;;;5053962;28;19944;-73
2022/05/01 12:10:21;;;;;;;;;;;22.70;94.60;;;;;;5054483;28;19991;-76
2022/05/01 12:12:47;;;;;;;;;;;23.00;94.40;;;;;;5053722;28;19909;-76
2022/05/01 12:15:12;;;;;;;;;;;23.10;94.50;;;;;;5053807;28;19989;-75
2022/05/01 12:17:39;;;;;;;;;;;23.50;93.90;;;;;;5054111;28;19908;-76
2022/05/01 12:20:05;;;;;;;;;;;23.80;92.50;;;;;;5053524;28;19997;-75
2022/05/01 12:22:37;;;;;;;;;;;23.90;91.60;;;;;;5054232;28;19920;-77
2022/05/01 12:25:04;;;;;;;;;;;23.80;91.20;;;;;;5054036;28;19916;-76
2022/05/01 12:27:30;;;;;;;;;;;24.00;91.60;;;;;;5053651;28;19916;-75
2022/05/01 12:29:56;;;;;;;;;;;24.30;91.50;;;;;;5054180;28;19936;-75
2022/05/01 12:32:22;;;;;;;;;;;24.50;90.90;;;;;;5053452;28;19971;-75
2022/05/01 12:34:48;;;;;;;;;;;24.80;90.70;;;;;;5053486;28;19908;-76
2022/05/01 12:37:15;;;;;;;;;;;24.90;90.30;;;;;;5053387;28;19999;-76
2022/05/01 12:39:55;;;;;;;;;;;24.80;87.90;;;;;;5053600;28;19916;-76
2022/05/01 12:45:20;;;;;;;;;;;24.20;89.30;;;;;;5053749;28;20034;-76
2022/05/01 12:47:48;;;;;;;;;;;24.00;90.40;;;;;;5053196;28;19909;-76
2022/05/01 12:50:20;;;;;;;;;;;23.90;90.50;;;;;;5053216;28;19909;-75
2022/05/01 12:52:47;;;;;;;;;;;24.00;90.60;;;;;;5051752;28;19909;-76
2022/05/01 12:55:17;;;;;;;;;;;24.20;90.20;;;;;;5053539;28;20292;-76
2022/05/01 12:57:50;;;;;;;;;;;24.40;88.90;;;;;;5053259;28;19909;-77
2022/05/01 13:00:35;;;;;;;;;;;24.30;89.70;;;;;;5053431;28;19909;-76
2022/05/01 13:03:19;;;;;;;;;;;24.20;88.60;;;;;;5053226;28;19966;-76
2022/05/01 13:06:03;;;;;;;;;;;24.30;88.70;;;;;;5052985;28;19909;-75
2022/05/01 13:08:30;;;;;;;;;;;24.00;89.30;;;;;;5052427;28;19908;-75
2022/05/01 13:11:09;;;;;;;;;;;23.90;88.20;;;;;;5052619;28;19917;-76
2022/05/01 13:13:41;;;;;;;;;;;23.70;89.60;;;;;;5052750;28;20032;-75
2022/05/01 13:16:07;;;;;;;;;;;23.70;89.80;;;;;;5051154;28;20365;-75
2022/05/01 13:18:33;;;;;;;;;;;23.30;90.30;;;;;;5054101;28;19952;-76
2022/05/01 13:20:59;;;;;;;;;;;23.20;89.70;;;;;;5053723;28;19999;-75
2022/05/01 13:23:25;;;;;;;;;;;23.30;89.00;;;;;;5051957;28;19983;-72
2022/05/01 13:25:51;;;;;;;;;;;23.10;89.90;;;;;;5052876;28;19935;-75
2022/05/01 13:28:17;;;;;;;;;;;23.30;90.30;;;;;;5053405;28;19909;-74
2022/05/01 13:30:43;;;;;;;;;;;23.40;90.10;;;;;;5053173;28;19956;-75
2022/05/01 13:33:08;;;;;;;;;;;23.60;89.60;;;;;;5052582;28;20327;-74
2022/05/01 13:35:34;;;;;;;;;;;23.60;88.60;;;;;;5053635;28;19909;-73
2022/05/01 13:38:00;;;;;;;;;;;23.60;88.90;;;;;;5052819;28;19956;-76
2022/05/01 13:45:54;;;;;;;;;;;23.40;89.10;;;;;;5053298;28;19931;-74
2022/05/01 13:48:21;;;;;;;;;;;23.40;88.70;;;;;;5052985;28;20346;-74
2022/05/01 13:50:47;;;;;;;;;;;23.40;89.00;;;;;;5052920;28;20222;-75
2022/05/01 13:53:13;;;;;;;;;;;23.30;89.40;;;;;;5052870;28;19916;-77
2022/05/01 13:55:39;;;;;;;;;;;23.50;89.80;;;;;;5052652;28;19996;-76
2022/05/01 13:58:06;;;;;;;;;;;23.40;90.00;;;;;;5052397;28;19916;-74
2022/05/01 14:00:33;;;;;;;;;;;23.50;89.00;;;;;;5051120;28;20274;-75
2022/05/01 14:03:00;;;;;;;;;;;23.40;88.60;;;;;;5052472;28;19909;-76
2022/05/01 14:05:26;;;;;;;;;;;23.50;87.90;;;;;;5051045;28;19966;-74
2022/05/01 14:07:52;;;;;;;;;;;23.60;87.80;;;;;;5052860;28;19908;-76
2022/05/01 14:10:17;;;;;;;;;;;23.60;87.10;;;;;;5052293;28;20050;-75
2022/05/01 14:12:46;;;;;;;;;;;23.70;86.90;;;;;;5052315;28;19909;-75
2022/05/01 14:15:12;;;;;;;;;;;23.70;87.00;;;;;;5052433;28;19924;-74
2022/05/01 14:17:38;;;;;;;;;;;23.50;87.10;;;;;;5052498;28;19916;-75
2022/05/01 14:20:05;;;;;;;;;;;23.00;88.00;;;;;;5052673;28;19913;-74
2022/05/01 14:22:31;;;;;;;;;;;23.10;88.40;;;;;;5052437;28;19915;-76
2022/05/01 14:24:58;;;;;;;;;;;23.20;88.70;;;;;;5051021;28;19916;-76
2022/05/01 14:27:24;;;;;;;;;;;23.30;87.80;;;;;;5052715;28;19909;-75
2022/05/01 14:29:50;;;;;;;;;;;23.50;87.30;;;;;;5052647;28;19936;-75
2022/05/01 14:32:23;;;;;;;;;;;23.30;87.00;;;;;;5052292;28;19924;-75
2022/05/01 14:34:58;;;;;;;;;;;23.20;86.80;;;;;;5052649;28;19940;-76
2022/05/01 14:37:27;;;;;;;;;;;23.40;87.00;;;;;;5052453;28;20352;-75
2022/05/01 14:39:54;;;;;;;;;;;23.50;86.60;;;;;;5051610;28;19908;-77
2022/05/01 14:42:21;;;;;;;;;;;23.40;86.30;;;;;;5052603;28;19951;-75
2022/05/01 14:44:55;;;;;;;;;;;23.50;86.40;;;;;;5055629;28;19908;-74
2022/05/01 14:47:28;;;;;;;;;;;23.70;86.00;;;;;;5056531;28;20328;-74
2022/05/01 14:49:58;;;;;;;;;;;23.80;84.60;;;;;;5055559;28;19948;-75
2022/05/01 14:52:24;;;;;;;;;;;23.70;84.80;;;;;;5056056;28;19994;-75
2022/05/01 14:54:50;;;;;;;;;;;23.90;84.80;;;;;;5055757;28;19913;-74
2022/05/01 14:57:19;;;;;;;;;;;24.00;83.10;;;;;;5055473;28;20399;-75
2022/05/01 15:08:10;;;;;;;;;;;23.90;85.00;;;;;;5055417;28;20237;-74
2022/05/01 15:10:40;;;;;;;;;;;23.80;83.00;;;;;;5053620;28;19942;-75
2022/05/01 15:13:22;;;;;;;;;;;23.40;85.00;;;;;;5055011;28;19909;-75
2022/05/01 15:15:51;;;;;;;;;;;23.30;86.50;;;;;;5055225;28;20028;-76
2022/05/01 15:18:19;;;;;;;;;;;23.20;86.40;;;;;;5055945;28;19913;-75
2022/05/01 15:20:48;;;;;;;;;;;23.20;85.30;;;;;;5056122;28;19916;-76